createdAt,value
2019-05-17T00:01:39.125Z,27.43
2019-05-17T00:04:07.205Z,28.50
2019-05-17T00:06:33.693Z,29.13
2019-05-17T00:08:59.846Z,27.03
2019-05-17T00:11:27.381Z,26.93
2019-05-17T00:13:53.662Z,28.80
2019-05-17T00:16:20.185Z,27.60
2019-05-17T00:18:46.422Z,25.97
2019-05-17T00:21:12.710Z,26.53
2019-05-17T00:23:38.847Z,25.43
2019-05-17T00:26:07.114Z,24.17
2019-05-17T00:28:33.652Z,25.57
2019-05-17T00:30:59.804Z,24.37
2019-05-17T00:33:27.222Z,24.10
2019-05-17T00:35:53.592Z,25.97
2019-05-17T00:38:20.098Z,23.70
2019-05-17T00:43:36.881Z,26.50
2019-05-17T00:46:03.290Z,26.23
2019-05-17T00:51:17.954Z,27.47
2019-05-17T00:53:44.217Z,24.50
2019-05-17T00:56:10.375Z,25.67
2019-05-17T00:58:37.045Z,25.20
2019-05-17T01:01:03.396Z,26.67
2019-05-17T01:03:29.639Z,26.00
2019-05-17T01:05:56.768Z,26.23
2019-05-17T01:08:23.085Z,24.77
2019-05-17T01:10:51.759Z,26.33
2019-05-17T01:13:17.909Z,25.27
2019-05-17T01:15:44.201Z,27.03
2019-05-17T01:18:11.487Z,25.87
2019-05-17T01:20:38.638Z,25.53
2019-05-17T01:23:07.265Z,25.33
2019-05-17T01:25:36.949Z,24.23
2019-05-17T01:28:03.263Z,25.50
2019-05-17T01:30:29.442Z,25.07
2019-05-17T01:32:57.010Z,25.27
2019-05-17T01:35:23.471Z,23.20
2019-05-17T01:37:51.624Z,26.83
2019-05-17T01:40:17.870Z,25.70
2019-05-17T01:42:46.452Z,27.23
2019-05-17T01:45:13.055Z,26.90
2019-05-17T01:47:39.244Z,27.93
2019-05-17T01:50:07.144Z,28.00
2019-05-17T01:52:36.760Z,26.67
2019-05-17T01:55:07.371Z,27.17
2019-05-17T01:57:33.534Z,27.10
2019-05-17T02:00:02.791Z,27.63
2019-05-17T02:02:33.723Z,27.23
2019-05-17T02:05:00.954Z,27.50
2019-05-17T02:07:27.199Z,27.87
2019-05-17T02:09:53.369Z,29.67
2019-05-17T02:12:22.197Z,31.50
2019-05-17T02:14:48.477Z,27.80
2019-05-17T02:17:14.654Z,28.30
2019-05-17T02:19:41.178Z,29.37
2019-05-17T02:22:07.563Z,29.93
2019-05-17T02:24:36.884Z,30.47
2019-05-17T02:27:02.848Z,29.57
2019-05-17T02:29:29.011Z,28.13
2019-05-17T02:31:55.260Z,29.27
2019-05-17T02:34:23.310Z,31.90
2019-05-17T02:36:53.372Z,30.40
2019-05-17T02:39:23.229Z,30.20
2019-05-17T02:41:53.311Z,30.70
2019-05-17T02:44:23.536Z,28.53
2019-05-17T02:46:53.755Z,29.13
2019-05-17T02:49:23.352Z,31.10
2019-05-17T02:51:48.108Z,29.67
2019-05-17T02:54:14.405Z,27.80
2019-05-17T02:56:43.618Z,28.77
2019-05-17T02:59:08.626Z,29.97
2019-05-17T03:01:36.971Z,29.63
2019-05-17T03:04:03.853Z,29.20
2019-05-17T03:06:33.030Z,30.57
2019-05-17T03:08:59.377Z,29.70
2019-05-17T03:11:25.685Z,29.20
2019-05-17T03:13:52.551Z,29.17
2019-05-17T03:16:19.154Z,29.50
2019-05-17T03:18:47.109Z,30.53
2019-05-17T03:21:13.647Z,30.20
2019-05-17T03:23:43.274Z,29.70
2019-05-17T03:26:08.161Z,29.80
2019-05-17T03:28:35.586Z,30.77
2019-05-17T03:31:08.191Z,30.43
2019-05-17T03:33:36.135Z,30.33
2019-05-17T03:36:05.366Z,30.00
2019-05-17T03:38:28.217Z,31.43
2019-05-17T03:41:11.870Z,29.57
2019-05-17T03:43:22.814Z,36.05
2019-05-17T03:45:53.136Z,31.10
2019-05-17T03:48:18.179Z,28.67
2019-05-17T03:50:44.354Z,28.67
2019-05-17T03:53:13.189Z,31.83
2019-05-17T03:55:42.795Z,30.20
2019-05-17T03:58:07.990Z,30.63
2019-05-17T04:00:35.558Z,32.13
2019-05-17T04:03:03.247Z,31.33
2019-05-17T04:05:33.065Z,29.87
2019-05-17T04:07:58.333Z,28.90
2019-05-17T04:10:24.501Z,30.50
2019-05-17T04:12:52.958Z,29.87
2019-05-17T04:15:24.031Z,33.13
2019-05-17T04:17:52.822Z,31.63
2019-05-17T04:20:22.220Z,30.53
2019-05-17T04:22:47.221Z,29.83
2019-05-17T04:25:14.113Z,30.00
2019-05-17T04:27:43.672Z,29.27
2019-05-17T04:30:12.611Z,27.63
2019-05-17T04:32:38.066Z,30.87
2019-05-17T04:35:05.967Z,30.07
2019-05-17T04:37:33.937Z,29.80
2019-05-17T04:40:03.478Z,28.47
2019-05-17T04:42:28.804Z,29.23
2019-05-17T04:44:55.090Z,30.20
2019-05-17T04:47:22.972Z,29.90
2019-05-17T04:49:53.662Z,29.17
2019-05-17T04:52:18.690Z,27.67
2019-05-17T04:54:44.845Z,27.00
2019-05-17T04:57:13.051Z,27.23
2019-05-17T04:59:39.597Z,27.27
2019-05-17T05:02:05.785Z,26.40
2019-05-17T05:04:33.384Z,26.87
2019-05-17T05:07:03.085Z,27.50
2019-05-17T05:09:28.555Z,27.10
2019-05-17T05:12:01.437Z,25.40
2019-05-17T05:14:23.377Z,25.30
2019-05-17T05:16:52.878Z,26.33
2019-05-17T05:19:22.353Z,26.00
2019-05-17T05:21:48.197Z,25.47
2019-05-17T05:24:14.343Z,26.63
2019-05-17T05:26:42.442Z,26.97
2019-05-17T05:29:08.576Z,25.03
2019-05-17T05:31:34.813Z,25.57
2019-05-17T05:34:01.897Z,25.80
2019-05-17T05:36:28.303Z,26.30
2019-05-17T05:38:54.467Z,25.33
2019-05-17T05:41:22.572Z,23.77
2019-05-17T05:43:49.345Z,25.67
2019-05-17T05:46:15.575Z,24.30
2019-05-17T05:48:41.793Z,25.30
2019-05-17T05:51:08.075Z,25.60
2019-05-17T05:53:34.444Z,24.03
2019-05-17T05:56:03.574Z,23.90
2019-05-17T05:58:32.159Z,24.13
2019-05-17T06:00:58.180Z,22.83
2019-05-17T06:03:24.383Z,21.87
2019-05-17T06:05:52.546Z,22.17
2019-05-17T06:08:19.066Z,22.93
2019-05-17T06:10:45.624Z,21.20
2019-05-17T06:13:13.083Z,21.80
2019-05-17T06:15:42.672Z,20.47
2019-05-17T06:18:08.941Z,21.40
2019-05-17T06:20:35.374Z,20.93
2019-05-17T06:23:02.547Z,20.87
2019-05-17T06:25:28.915Z,21.30
2019-05-17T06:27:55.149Z,21.90
2019-05-17T06:30:22.024Z,20.80
2019-05-17T06:32:48.789Z,20.57
2019-05-17T06:35:15.185Z,20.90
2019-05-17T06:37:42.232Z,20.60
2019-05-17T06:40:09.156Z,20.00
2019-05-17T06:42:41.117Z,20.33
2019-05-17T06:45:07.208Z,19.93
2019-05-17T06:47:33.435Z,19.13
2019-05-17T06:49:59.637Z,18.63
2019-05-17T06:52:25.787Z,17.67
2019-05-17T06:54:52.495Z,18.53
2019-05-17T06:57:18.827Z,16.73
2019-05-17T06:59:44.979Z,17.03
2019-05-17T07:02:11.155Z,17.03
2019-05-17T07:04:39.460Z,16.37
2019-05-17T07:07:25.643Z,16.00
2019-05-17T07:09:56.107Z,16.57
2019-05-17T07:12:22.365Z,16.43
2019-05-17T07:14:50.569Z,16.00
2019-05-17T07:17:19.740Z,16.03
2019-05-17T07:19:46.227Z,14.87
2019-05-17T07:22:13.506Z,15.53
2019-05-17T07:24:39.836Z,14.70
2019-05-17T07:27:06.343Z,15.67
2019-05-17T07:29:32.525Z,16.23
2019-05-17T07:32:00.359Z,15.37
2019-05-17T07:34:26.658Z,13.10
2019-05-17T07:36:52.853Z,13.77
2019-05-17T07:39:20.445Z,13.40
2019-05-17T07:41:46.854Z,13.47
2019-05-17T07:44:13.073Z,13.07
2019-05-17T07:46:40.235Z,11.73
2019-05-17T07:49:06.682Z,11.93
2019-05-17T07:51:33.924Z,11.83
2019-05-17T07:54:00.100Z,13.03
2019-05-17T07:56:26.347Z,12.93
2019-05-17T07:58:52.546Z,11.73
2019-05-17T08:01:20.477Z,12.27
2019-05-17T08:03:46.833Z,11.23
2019-05-17T08:06:12.984Z,11.90
2019-05-17T08:08:40.975Z,11.67
2019-05-17T08:11:07.403Z,12.40
2019-05-17T08:13:33.852Z,12.73
2019-05-17T08:16:00.463Z,13.03
2019-05-17T08:18:26.670Z,12.27
2019-05-17T08:20:52.812Z,11.90
2019-05-17T08:23:20.411Z,11.03
2019-05-17T08:25:52.776Z,11.57
2019-05-17T08:28:16.299Z,11.07
2019-05-17T08:30:43.564Z,10.57
2019-05-17T08:33:10.752Z,9.20
2019-05-17T08:35:39.887Z,9.03
2019-05-17T08:38:09.968Z,9.47
2019-05-17T08:40:35.800Z,10.33
2019-05-17T08:43:02.009Z,9.17
2019-05-17T08:45:29.612Z,8.70
2019-05-17T08:47:56.255Z,8.37
2019-05-17T08:50:23.503Z,9.73
2019-05-17T08:52:51.579Z,9.13
2019-05-17T08:55:20.273Z,8.57
2019-05-17T08:57:45.927Z,8.27
2019-05-17T09:00:12.832Z,8.20
2019-05-17T09:02:40.930Z,8.13
2019-05-17T09:05:09.887Z,7.67
2019-05-17T09:07:36.233Z,8.20
2019-05-17T09:10:05.157Z,8.13
2019-05-17T09:12:31.397Z,7.83
2019-05-17T09:14:57.551Z,8.07
2019-05-17T09:17:23.698Z,6.77
2019-05-17T09:19:50.940Z,8.13
2019-05-17T09:22:19.788Z,7.97
2019-05-17T09:24:46.940Z,7.80
2019-05-17T09:27:13.076Z,7.23
2019-05-17T09:29:40.344Z,7.90
2019-05-17T09:32:09.558Z,8.17
2019-05-17T09:34:37.079Z,7.73
2019-05-17T09:37:03.291Z,7.63
2019-05-17T09:39:29.541Z,6.37
2019-05-17T09:41:56.121Z,6.27
2019-05-17T09:44:22.288Z,6.87
2019-05-17T09:46:50.416Z,8.70
2019-05-17T09:49:16.734Z,7.87
2019-05-17T09:51:42.918Z,7.57
2019-05-17T09:54:10.298Z,7.53
2019-05-17T09:56:36.658Z,7.10
2019-05-17T09:59:02.938Z,6.87
2019-05-17T10:01:30.486Z,6.77
2019-05-17T10:03:56.765Z,6.97
2019-05-17T10:06:22.951Z,7.10
2019-05-17T10:08:49.572Z,7.47
2019-05-17T10:11:16.111Z,6.63
2019-05-17T10:13:42.267Z,7.17
2019-05-17T10:16:10.161Z,6.80
2019-05-17T10:18:39.935Z,6.43
2019-05-17T10:21:05.971Z,7.03
2019-05-17T10:23:32.135Z,6.47
2019-05-17T10:25:59.581Z,6.63
2019-05-17T10:28:26.340Z,6.83
2019-05-17T10:30:52.628Z,7.07
2019-05-17T10:33:20.060Z,6.77
2019-05-17T10:35:46.576Z,6.30
2019-05-17T10:38:13.001Z,7.00
2019-05-17T10:40:40.973Z,6.87
2019-05-17T10:43:09.831Z,7.97
2019-05-17T10:45:36.823Z,6.40
2019-05-17T10:48:02.984Z,5.83
2019-05-17T10:50:29.786Z,5.30
2019-05-17T10:52:56.534Z,6.87
2019-05-17T10:55:22.681Z,5.43
2019-05-17T10:57:50.165Z,5.50
2019-05-17T11:00:19.747Z,5.10
2019-05-17T11:02:46.066Z,6.33
2019-05-17T11:05:12.793Z,6.60
2019-05-17T11:07:39.333Z,5.13
2019-05-17T11:10:06.879Z,5.30
2019-05-17T11:12:33.011Z,5.50
2019-05-17T11:15:10.274Z,5.30
2019-05-17T11:17:28.647Z,5.43
2019-05-17T11:19:54.807Z,5.20
2019-05-17T11:22:21.407Z,5.10
2019-05-17T11:24:48.502Z,5.47
2019-05-17T11:27:14.661Z,6.20
2019-05-17T11:29:40.852Z,5.50
2019-05-17T11:32:07.054Z,6.43
2019-05-17T11:34:33.349Z,5.47
2019-05-17T11:37:01.960Z,5.67
2019-05-17T11:39:28.351Z,5.63
2019-05-17T11:41:54.636Z,6.13
2019-05-17T11:44:21.107Z,7.00
2019-05-17T11:46:47.261Z,6.20
2019-05-17T11:49:13.518Z,5.47
2019-05-17T11:51:39.839Z,6.07
2019-05-17T11:54:06.315Z,5.40
2019-05-17T11:56:32.461Z,5.03
2019-05-17T11:58:58.617Z,5.37
2019-05-17T12:01:24.768Z,5.03
2019-05-17T12:03:51.927Z,4.87
2019-05-17T12:06:18.390Z,4.77
2019-05-17T12:08:44.980Z,4.47
2019-05-17T12:11:11.148Z,4.97
2019-05-17T12:13:38.266Z,5.70
2019-05-17T12:16:04.919Z,5.47
2019-05-17T12:18:31.433Z,4.87
2019-05-17T12:20:57.590Z,6.13
2019-05-17T12:23:23.758Z,5.57
2019-05-17T12:25:50.941Z,4.67
2019-05-17T12:28:17.133Z,5.20
2019-05-17T12:30:43.280Z,4.87
2019-05-17T12:33:09.447Z,4.23
2019-05-17T12:35:36.701Z,4.33
2019-05-17T12:38:03.417Z,5.50
2019-05-17T12:40:29.961Z,4.67
2019-05-17T12:42:56.103Z,4.37
2019-05-17T12:45:22.270Z,4.77
2019-05-17T12:47:48.775Z,4.83
2019-05-17T12:50:15.369Z,4.57
2019-05-17T12:52:41.558Z,3.60
2019-05-17T12:55:07.926Z,4.20
2019-05-17T12:57:34.076Z,3.47
2019-05-17T13:00:00.257Z,3.73
2019-05-17T13:02:28.969Z,3.93
2019-05-17T13:04:55.487Z,3.90
2019-05-17T13:07:21.669Z,4.50
2019-05-17T13:09:47.864Z,5.57
2019-05-17T13:12:14.015Z,5.60
2019-05-17T13:14:40.193Z,5.77
2019-05-17T13:17:06.612Z,5.07
2019-05-17T13:19:32.773Z,5.67
2019-05-17T13:21:58.969Z,5.33
2019-05-17T13:24:25.137Z,4.67
2019-05-17T13:26:51.435Z,5.17
2019-05-17T13:29:17.899Z,5.40
2019-05-17T13:31:44.446Z,5.73
2019-05-17T13:34:10.709Z,5.37
2019-05-17T13:36:37.009Z,5.93
2019-05-17T13:39:05.290Z,5.40
2019-05-17T13:41:31.545Z,6.20
2019-05-17T13:43:57.828Z,6.13
2019-05-17T13:46:32.606Z,6.67
2019-05-17T13:48:52.765Z,6.07
2019-05-17T13:51:19.012Z,6.10
2019-05-17T13:53:45.362Z,6.10
2019-05-17T13:56:11.572Z,6.50
2019-05-17T14:01:26.718Z,6.63
2019-05-17T14:03:53.432Z,6.50
2019-05-17T14:06:20.194Z,6.90
2019-05-17T14:08:46.445Z,6.97
2019-05-17T14:11:12.609Z,6.77
2019-05-17T14:13:38.763Z,6.70
2019-05-17T14:16:05.261Z,6.87
2019-05-17T14:18:31.427Z,6.10
2019-05-17T14:20:57.568Z,6.80
2019-05-17T14:23:23.774Z,6.10
2019-05-17T14:25:49.916Z,6.63
2019-05-17T14:28:16.203Z,5.73
2019-05-17T14:30:42.492Z,6.57
2019-05-17T14:33:08.785Z,5.57
2019-05-17T14:35:35.276Z,5.90
2019-05-17T14:38:01.444Z,6.43
2019-05-17T14:41:00.593Z,6.33
2019-05-17T14:42:55.675Z,6.77
2019-05-17T14:45:23.623Z,6.27
2019-05-17T14:47:49.977Z,7.00
2019-05-17T14:50:16.510Z,6.50
2019-05-17T14:52:42.714Z,7.17
2019-05-17T14:55:09.364Z,7.30
2019-05-17T14:57:35.519Z,7.20
2019-05-17T15:00:04.100Z,8.03
2019-05-17T15:02:31.335Z,8.10
2019-05-17T15:04:57.526Z,7.70
2019-05-17T15:07:23.700Z,8.00
2019-05-17T15:09:50.353Z,8.33
2019-05-17T15:12:27.764Z,7.90
2019-05-17T15:14:44.635Z,8.77
2019-05-17T15:17:10.793Z,8.20
2019-05-17T15:19:38.499Z,8.57
2019-05-17T15:22:04.706Z,8.33
2019-05-17T15:24:30.950Z,8.80
2019-05-17T15:27:05.294Z,8.60
2019-05-17T15:29:25.482Z,8.70
2019-05-17T15:31:52.216Z,8.60
2019-05-17T15:34:18.637Z,8.43
2019-05-17T15:36:45.088Z,8.73
2019-05-17T15:39:12.228Z,8.93
2019-05-17T15:41:38.400Z,9.20
2019-05-17T15:44:04.936Z,8.83
2019-05-17T15:46:31.167Z,9.30
2019-05-17T15:48:57.305Z,9.03
2019-05-17T15:51:23.521Z,9.20
2019-05-17T15:53:49.773Z,9.83
2019-05-17T15:56:15.996Z,8.57
2019-05-17T15:58:42.614Z,9.87
2019-05-17T16:01:08.849Z,11.17
2019-05-17T16:03:35.390Z,12.17
2019-05-17T16:06:01.560Z,13.00
2019-05-17T16:08:29.670Z,12.43
2019-05-17T16:10:56.072Z,12.13
2019-05-17T16:13:23.412Z,13.20
2019-05-17T16:15:50.010Z,11.43
2019-05-17T16:18:16.189Z,12.17
2019-05-17T16:20:42.385Z,12.20
2019-05-17T16:23:08.634Z,11.57
2019-05-17T16:25:35.278Z,10.40
2019-05-17T16:28:01.436Z,10.57
2019-05-17T16:30:27.699Z,10.77
2019-05-17T16:32:53.921Z,10.90
2019-05-17T16:35:20.720Z,11.07
2019-05-17T16:37:46.930Z,10.50
2019-05-17T16:40:13.366Z,10.77
2019-05-17T16:42:39.580Z,10.60
2019-05-17T16:45:07.760Z,10.47
2019-05-17T16:47:34.191Z,9.73
2019-05-17T16:50:00.369Z,10.03
2019-05-17T16:52:26.520Z,10.87
2019-05-17T16:54:52.718Z,10.57
2019-05-17T16:57:19.292Z,11.03
2019-05-17T16:59:46.638Z,13.00
2019-05-17T17:02:12.809Z,10.17
2019-05-17T17:04:39.227Z,10.23
2019-05-17T17:07:06.112Z,10.27
2019-05-17T17:09:32.839Z,10.37
2019-05-17T17:11:59.024Z,10.47
2019-05-17T17:14:25.293Z,10.40
2019-05-17T17:16:51.621Z,10.17
2019-05-17T17:19:17.843Z,11.30
2019-05-17T17:21:43.993Z,12.03
2019-05-17T17:24:10.174Z,11.10
2019-05-17T17:26:37.006Z,10.87
2019-05-17T17:29:03.397Z,11.27
2019-05-17T17:31:29.544Z,11.47
2019-05-17T17:33:55.713Z,10.93
2019-05-17T17:36:21.903Z,10.80
2019-05-17T17:38:48.102Z,12.10
2019-05-17T17:41:14.603Z,11.67
2019-05-17T17:43:40.752Z,12.10
2019-05-17T17:46:07.392Z,11.70
2019-05-17T17:48:33.534Z,11.47
2019-05-17T17:50:59.713Z,11.53
2019-05-17T17:53:25.872Z,11.70
2019-05-17T17:55:53.195Z,11.60
2019-05-17T17:58:19.881Z,11.87
2019-05-17T18:00:46.107Z,11.90
2019-05-17T18:03:14.325Z,10.97
2019-05-17T18:05:40.992Z,11.67
2019-05-17T18:08:07.332Z,11.37
2019-05-17T18:10:33.988Z,11.67
2019-05-17T18:13:00.676Z,10.93
2019-05-17T18:15:33.712Z,11.13
2019-05-17T18:18:00.324Z,11.00
2019-05-17T18:20:26.499Z,11.70
2019-05-17T18:22:52.853Z,11.70
2019-05-17T18:25:19.167Z,11.70
2019-05-17T18:27:45.426Z,11.33
2019-05-17T18:30:12.397Z,10.63
2019-05-17T18:32:38.549Z,11.20
2019-05-17T18:35:05.503Z,11.13
2019-05-17T18:37:31.637Z,12.53
2019-05-17T18:39:57.838Z,11.13
2019-05-17T18:42:24.779Z,11.57
2019-05-17T18:44:50.941Z,10.97
2019-05-17T18:47:17.118Z,12.50
2019-05-17T18:49:43.303Z,12.87
2019-05-17T18:52:10.091Z,12.93
2019-05-17T18:54:36.796Z,13.30
2019-05-17T18:57:03.404Z,13.03
2019-05-17T18:59:30.162Z,11.70
2019-05-17T19:01:56.389Z,12.30
2019-05-17T19:04:22.599Z,12.83
2019-05-17T19:06:48.768Z,12.17
2019-05-17T19:09:15.216Z,13.00
2019-05-17T19:11:41.531Z,11.57
2019-05-17T19:14:07.791Z,11.70
2019-05-17T19:16:35.531Z,13.20
2019-05-17T19:19:01.711Z,12.60
2019-05-17T19:21:27.872Z,13.13
2019-05-17T19:23:54.073Z,11.57
2019-05-17T19:26:20.227Z,12.73
2019-05-17T19:28:46.381Z,12.57
2019-05-17T19:31:12.556Z,12.43
2019-05-17T19:33:38.748Z,12.07
2019-05-17T19:36:05.833Z,12.87
2019-05-17T19:38:32.090Z,13.70
2019-05-17T19:40:58.280Z,12.17
2019-05-17T19:43:25.218Z,13.10
2019-05-17T19:45:52.157Z,12.67
2019-05-17T19:48:19.879Z,11.60
2019-05-17T19:50:46.317Z,13.13
2019-05-17T19:53:12.544Z,13.27
2019-05-17T19:55:39.464Z,12.60
2019-05-17T19:58:05.641Z,14.07
2019-05-17T20:00:32.941Z,12.70
2019-05-17T20:02:59.101Z,14.17
2019-05-17T20:05:25.406Z,13.60
2019-05-17T20:07:52.472Z,12.10
2019-05-17T20:10:19.947Z,12.83
2019-05-17T20:12:46.251Z,13.27
2019-05-17T20:15:18.177Z,13.67
2019-05-17T20:17:41.373Z,13.60
2019-05-17T20:20:10.277Z,13.97
2019-05-17T20:22:37.489Z,13.07
2019-05-17T20:25:05.717Z,13.80
2019-05-17T20:27:31.882Z,12.37
2019-05-17T20:29:58.046Z,13.20
2019-05-17T20:32:25.342Z,12.37
2019-05-17T20:34:51.664Z,12.70
2019-05-17T20:37:19.420Z,13.23
2019-05-17T20:39:45.801Z,12.43
2019-05-17T20:42:11.958Z,13.37
2019-05-17T20:44:40.342Z,13.20
2019-05-17T20:47:08.199Z,12.83
2019-05-17T20:49:35.689Z,13.53
2019-05-17T20:52:01.901Z,13.77
2019-05-17T20:54:28.046Z,13.47
2019-05-17T20:56:55.400Z,13.07
2019-05-17T20:59:21.589Z,13.13
2019-05-17T21:01:49.137Z,13.93
2019-05-17T21:04:15.294Z,13.80
2019-05-17T21:06:41.452Z,13.70
2019-05-17T21:09:08.756Z,14.37
2019-05-17T21:11:35.274Z,13.70
2019-05-17T21:14:01.489Z,13.10
2019-05-17T21:16:27.660Z,12.67
2019-05-17T21:18:55.290Z,12.90
2019-05-17T21:21:21.639Z,12.57
2019-05-17T21:23:49.865Z,12.53
2019-05-17T21:26:16.017Z,11.33
2019-05-17T21:28:42.168Z,12.17
2019-05-17T21:31:09.311Z,11.60
2019-05-17T21:33:35.503Z,10.80
2019-05-17T21:36:02.060Z,11.97
2019-05-17T21:38:28.489Z,11.50
2019-05-17T21:40:54.669Z,10.80
2019-05-17T21:43:21.092Z,11.63
2019-05-17T21:46:01.075Z,11.47
2019-05-17T21:48:15.337Z,10.83
2019-05-17T21:50:41.610Z,11.43
2019-05-17T21:53:10.583Z,11.47
2019-05-17T21:55:36.821Z,10.40
2019-05-17T21:58:04.125Z,11.30
2019-05-17T22:00:51.040Z,10.60
2019-05-17T22:03:17.855Z,10.07
2019-05-17T22:05:44.287Z,9.60
2019-05-17T22:08:10.451Z,10.83
2019-05-17T22:10:36.611Z,12.70
2019-05-17T22:13:02.869Z,11.07
2019-05-17T22:15:29.023Z,10.63
2019-05-17T22:17:55.673Z,11.90
2019-05-17T22:20:21.876Z,10.73
2019-05-17T22:22:50.149Z,12.03
2019-05-17T22:25:16.337Z,11.47
2019-05-17T22:27:42.530Z,13.13
2019-05-17T22:30:09.921Z,12.20
2019-05-17T22:32:36.108Z,12.07
2019-05-17T22:35:04.862Z,11.53
2019-05-17T22:37:31.011Z,12.30
2019-05-17T22:39:57.176Z,12.27
2019-05-17T22:42:25.525Z,11.93
2019-05-17T22:44:51.760Z,12.10
2019-05-17T22:47:18.531Z,12.17
2019-05-17T22:49:44.698Z,12.37
2019-05-17T22:52:10.851Z,12.53
2019-05-17T22:54:37.801Z,13.03
2019-05-17T22:57:06.104Z,12.03
2019-05-17T22:59:32.267Z,11.30
2019-05-17T23:01:59.529Z,11.83
2019-05-17T23:04:25.816Z,11.07
2019-05-17T23:06:54.288Z,12.13
2019-05-17T23:09:21.223Z,11.90
2019-05-17T23:11:47.423Z,12.50
2019-05-17T23:14:13.859Z,13.67
2019-05-17T23:16:50.876Z,12.00
2019-05-17T23:19:10.640Z,13.20
2019-05-17T23:21:39.037Z,12.60
2019-05-17T23:24:06.161Z,12.43
2019-05-17T23:26:32.308Z,12.00
2019-05-17T23:28:59.896Z,13.30
2019-05-17T23:31:26.064Z,12.83
2019-05-17T23:33:52.599Z,12.97
2019-05-17T23:36:18.872Z,13.57
2019-05-17T23:38:45.365Z,12.60
2019-05-17T23:41:11.515Z,13.03
2019-05-17T23:43:39.713Z,13.30
2019-05-17T23:46:05.903Z,12.87
2019-05-17T23:48:32.352Z,13.00
2019-05-17T23:50:58.544Z,13.43
2019-05-17T23:53:25.013Z,13.77
2019-05-17T23:55:51.194Z,13.17
2019-05-17T23:58:17.349Z,14.13
